createdAt,value
2022-11-04T00:00:37.572Z,7.56
2022-11-04T00:01:42.997Z,7.56
2022-11-04T00:02:46.084Z,7.55
2022-11-04T00:03:49.738Z,7.55
2022-11-04T00:04:52.820Z,7.56
2022-11-04T00:05:55.947Z,7.58
2022-11-04T00:06:59.022Z,7.57
2022-11-04T00:08:20.182Z,7.57
2022-11-04T00:09:25.923Z,7.57
2022-11-04T00:10:47.659Z,7.55
2022-11-04T00:12:09.697Z,7.55
2022-11-04T00:13:12.808Z,7.55
2022-11-04T00:14:15.965Z,7.54
2022-11-04T00:15:37.426Z,7.55
2022-11-04T00:16:59.238Z,7.54
2022-11-04T00:18:02.375Z,7.54
2022-11-04T00:19:05.363Z,7.53
2022-11-04T00:21:52.350Z,7.62
2022-11-04T00:23:13.767Z,7.52
2022-11-04T00:24:35.179Z,7.52
2022-11-04T00:25:56.791Z,7.52
2022-11-04T00:27:18.124Z,7.52
2022-11-04T00:28:39.809Z,7.52
2022-11-04T00:29:42.779Z,7.52
2022-11-04T00:30:45.649Z,7.52
2022-11-04T00:32:06.871Z,7.52
2022-11-04T00:33:25.271Z,7.53
2022-11-04T00:34:28.301Z,7.54
2022-11-04T00:35:31.244Z,7.55
2022-11-04T00:36:34.342Z,7.56
2022-11-04T00:37:38.740Z,7.56
2022-11-04T00:40:21.869Z,7.58
2022-11-04T00:41:29.246Z,7.60
2022-11-04T00:42:32.232Z,7.60
2022-11-04T00:43:35.213Z,7.59
2022-11-04T00:44:38.263Z,7.60
2022-11-04T00:45:42.126Z,7.61
2022-11-04T00:46:45.308Z,7.62
2022-11-04T00:47:48.177Z,7.62
2022-11-04T00:48:51.126Z,7.63
2022-11-04T00:49:54.279Z,7.64
2022-11-04T00:50:57.344Z,7.66
2022-11-04T00:52:00.374Z,7.67
2022-11-04T00:53:04.113Z,7.68
2022-11-04T00:54:07.198Z,7.68
2022-11-04T00:55:10.834Z,7.68
2022-11-04T00:56:13.838Z,7.68
2022-11-04T00:57:16.982Z,7.70
2022-11-04T00:58:19.947Z,7.70
2022-11-04T00:59:22.926Z,7.70
2022-11-04T01:00:26.209Z,7.71
2022-11-04T01:01:29.363Z,7.71
2022-11-04T01:02:32.549Z,7.71
2022-11-04T01:03:35.834Z,7.72
2022-11-04T01:04:38.898Z,7.73
2022-11-04T01:05:41.882Z,7.73
2022-11-04T01:06:44.971Z,7.73
2022-11-04T01:07:47.991Z,7.74
2022-11-04T01:09:00.075Z,7.74
2022-11-04T01:10:03.274Z,7.74
2022-11-04T01:11:08.306Z,7.75
2022-11-04T01:12:11.316Z,7.76
2022-11-04T01:13:14.287Z,7.75
2022-11-04T01:14:17.282Z,7.76
2022-11-04T01:15:20.551Z,7.76
2022-11-04T01:16:24.700Z,7.77
2022-11-04T01:17:28.250Z,7.76
2022-11-04T01:18:31.938Z,7.77
2022-11-04T01:19:34.951Z,7.78
2022-11-04T01:20:37.934Z,7.78
2022-11-04T01:21:40.893Z,7.77
2022-11-04T01:22:44.023Z,7.77
2022-11-04T01:23:46.965Z,7.78
2022-11-04T01:24:50.059Z,7.79
2022-11-04T01:25:53.063Z,7.78
2022-11-04T01:26:56.133Z,7.77
2022-11-04T01:27:59.108Z,7.77
2022-11-04T01:29:02.575Z,7.77
2022-11-04T01:30:06.478Z,7.77
2022-11-04T01:31:12.164Z,7.77
2022-11-04T01:32:15.377Z,7.77
2022-11-04T01:33:18.357Z,7.76
2022-11-04T01:34:21.358Z,7.77
2022-11-04T01:35:24.984Z,7.76
2022-11-04T01:36:28.145Z,7.77
2022-11-04T01:37:31.210Z,7.77
2022-11-04T01:38:34.583Z,7.76
2022-11-04T01:39:37.560Z,7.77
2022-11-04T01:40:41.080Z,7.76
2022-11-04T01:41:44.391Z,7.76
2022-11-04T01:42:47.678Z,7.76
2022-11-04T01:43:56.804Z,7.75
2022-11-04T01:45:00.821Z,7.76
2022-11-04T01:46:04.189Z,7.75
2022-11-04T01:47:16.232Z,7.74
2022-11-04T01:48:28.618Z,7.75
2022-11-04T01:49:37.909Z,7.74
2022-11-04T01:50:40.211Z,7.74
2022-11-04T01:51:45.308Z,7.74
2022-11-04T01:52:54.767Z,7.75
2022-11-04T01:53:58.290Z,7.74
2022-11-04T01:55:04.877Z,7.74
2022-11-04T01:56:12.242Z,7.74
2022-11-04T01:57:21.671Z,7.73
2022-11-04T01:58:28.217Z,7.74
2022-11-04T01:59:34.771Z,7.74
2022-11-04T02:00:38.945Z,7.74
2022-11-04T02:01:43.068Z,7.74
2022-11-04T02:02:58.992Z,7.75
2022-11-04T02:04:20.451Z,7.72
2022-11-04T02:05:23.514Z,7.72
2022-11-04T02:06:26.511Z,7.71
2022-11-04T02:07:30.696Z,7.71
2022-11-04T02:08:35.129Z,7.70
2022-11-04T02:09:39.694Z,7.68
2022-11-04T02:10:46.290Z,7.69
2022-11-04T02:12:07.424Z,7.68
2022-11-04T02:13:11.071Z,7.67
2022-11-04T02:14:14.448Z,7.67
2022-11-04T02:15:26.974Z,7.66
2022-11-04T02:16:39.480Z,7.66
2022-11-04T02:18:00.390Z,7.66
2022-11-04T02:19:26.420Z,7.65
2022-11-04T02:20:38.961Z,7.65
2022-11-04T02:22:09.850Z,7.64
2022-11-04T02:24:36.515Z,7.72
2022-11-04T02:26:05.825Z,7.59
2022-11-04T02:27:30.717Z,7.59
2022-11-04T02:28:46.046Z,7.58
2022-11-04T02:29:52.739Z,7.57
2022-11-04T02:31:08.460Z,7.54
2022-11-04T02:32:40.506Z,7.57
2022-11-04T02:33:56.233Z,7.55
2022-11-04T02:35:09.082Z,7.53
2022-11-04T02:36:21.899Z,7.53
2022-11-04T02:37:46.615Z,7.52
2022-11-04T02:38:59.298Z,7.52
2022-11-04T02:40:09.145Z,7.51
2022-11-04T02:41:18.676Z,7.50
2022-11-04T02:42:40.137Z,7.50
2022-11-04T02:44:06.535Z,7.50
2022-11-04T02:45:31.082Z,7.49
2022-11-04T02:46:37.703Z,7.48
2022-11-04T02:47:44.252Z,7.47
2022-11-04T02:48:53.489Z,7.47
2022-11-04T02:50:02.867Z,7.46
2022-11-04T02:51:18.144Z,7.47
2022-11-04T02:53:45.252Z,7.59
2022-11-04T02:54:51.790Z,7.48
2022-11-04T02:55:57.872Z,7.47
2022-11-04T02:57:03.481Z,7.47
2022-11-04T02:58:12.868Z,7.47
2022-11-04T02:59:31.519Z,7.48
2022-11-04T03:00:38.100Z,7.49
2022-11-04T03:01:45.956Z,7.48
2022-11-04T03:03:01.940Z,7.50
2022-11-04T03:04:11.799Z,7.50
2022-11-04T03:05:18.344Z,7.51
2022-11-04T03:06:24.366Z,7.52
2022-11-04T03:07:31.035Z,7.51
2022-11-04T03:08:37.337Z,7.52
2022-11-04T03:09:43.204Z,7.52
2022-11-04T03:10:49.843Z,7.53
2022-11-04T03:12:00.844Z,7.54
2022-11-04T03:13:36.052Z,7.54
2022-11-04T03:14:42.733Z,7.55
2022-11-04T03:15:52.169Z,7.55
2022-11-04T03:17:01.535Z,7.55
2022-11-04T03:18:17.168Z,7.56
2022-11-04T03:19:46.153Z,7.56
2022-11-04T03:20:51.079Z,7.57
2022-11-04T03:22:03.602Z,7.57
2022-11-04T03:23:08.558Z,7.57
2022-11-04T03:24:11.575Z,7.57
2022-11-04T03:25:15.155Z,7.57
2022-11-04T03:26:31.046Z,7.58
2022-11-04T03:27:49.840Z,7.57
2022-11-04T03:29:02.424Z,7.57
2022-11-04T03:30:21.063Z,7.55
2022-11-04T03:31:27.811Z,7.54
2022-11-04T03:32:52.260Z,7.54
2022-11-04T03:33:57.232Z,7.53
2022-11-04T03:35:00.624Z,7.53
2022-11-04T03:36:04.099Z,7.52
2022-11-04T03:37:07.543Z,7.52
2022-11-04T03:38:10.992Z,7.53
2022-11-04T03:39:14.162Z,7.53
2022-11-04T03:40:20.139Z,7.52
2022-11-04T03:41:35.480Z,7.54
2022-11-04T03:42:42.097Z,7.54
2022-11-04T03:43:45.711Z,7.55
2022-11-04T03:44:57.127Z,7.56
2022-11-04T03:46:00.337Z,7.57
2022-11-04T03:47:03.407Z,7.58
2022-11-04T03:48:06.831Z,7.58
2022-11-04T03:49:12.246Z,7.58
2022-11-04T03:50:20.760Z,7.58
2022-11-04T03:51:23.756Z,7.58
2022-11-04T03:52:27.111Z,7.57
2022-11-04T03:53:33.319Z,7.56
2022-11-04T03:54:36.331Z,7.55
2022-11-04T03:56:11.741Z,7.55
2022-11-04T03:57:33.293Z,7.55
2022-11-04T03:58:43.975Z,7.52
2022-11-04T04:00:08.405Z,7.50
2022-11-04T04:01:30.210Z,7.50
2022-11-04T04:02:42.763Z,7.48
2022-11-04T04:03:55.374Z,7.47
2022-11-04T04:05:04.746Z,7.46
2022-11-04T04:06:17.525Z,7.47
2022-11-04T04:07:24.063Z,7.46
2022-11-04T04:08:42.292Z,7.47
2022-11-04T04:09:48.879Z,7.46
2022-11-04T04:11:07.379Z,7.46
2022-11-04T04:12:19.639Z,7.46
2022-11-04T04:13:42.920Z,7.45
2022-11-04T04:14:53.343Z,7.44
2022-11-04T04:16:02.533Z,7.42
2022-11-04T04:17:20.919Z,7.43
2022-11-04T04:18:27.647Z,7.43
2022-11-04T04:19:32.533Z,7.42
2022-11-04T04:20:38.109Z,7.42
2022-11-04T04:21:50.675Z,7.43
2022-11-04T04:22:57.267Z,7.43
2022-11-04T04:24:22.597Z,7.44
2022-11-04T04:25:46.564Z,7.44
2022-11-04T04:27:10.499Z,7.44
2022-11-04T04:28:16.958Z,7.45
2022-11-04T04:29:21.545Z,7.44
2022-11-04T04:30:25.929Z,7.45
2022-11-04T04:31:50.192Z,7.45
2022-11-04T04:34:07.750Z,7.58
2022-11-04T04:35:29.246Z,7.48
2022-11-04T04:36:35.859Z,7.50
2022-11-04T04:37:40.980Z,7.51
2022-11-04T04:39:02.806Z,7.51
2022-11-04T04:40:26.546Z,7.53
2022-11-04T04:41:49.417Z,7.54
2022-11-04T04:43:11.422Z,7.55
2022-11-04T04:44:44.987Z,7.57
2022-11-04T04:45:53.568Z,7.56
2022-11-04T04:46:57.995Z,7.56
2022-11-04T04:48:01.481Z,7.57
2022-11-04T04:49:07.225Z,7.57
2022-11-04T04:50:17.074Z,7.58
2022-11-04T04:51:21.386Z,7.59
2022-11-04T04:52:26.767Z,7.61
2022-11-04T04:53:29.799Z,7.63
2022-11-04T04:54:32.913Z,7.65
2022-11-04T04:55:40.652Z,7.66
2022-11-04T04:56:41.092Z,7.68
2022-11-04T04:57:44.090Z,7.69
2022-11-04T04:58:47.105Z,7.69
2022-11-04T04:59:50.063Z,7.70
2022-11-04T05:00:53.080Z,7.70
2022-11-04T05:01:56.436Z,7.70
2022-11-04T05:02:59.449Z,7.71
2022-11-04T05:04:02.492Z,7.71
2022-11-04T05:05:06.257Z,7.74
2022-11-04T05:06:10.716Z,7.72
2022-11-04T05:07:13.952Z,7.73
2022-11-04T05:08:17.116Z,7.75
2022-11-04T05:09:21.008Z,7.75
2022-11-04T05:10:24.195Z,7.74
2022-11-04T05:11:27.522Z,7.76
2022-11-04T05:12:32.493Z,7.77
2022-11-04T05:13:35.602Z,7.78
2022-11-04T05:14:38.751Z,7.79
2022-11-04T05:15:41.884Z,7.81
2022-11-04T05:16:45.386Z,7.81
2022-11-04T05:17:50.221Z,7.83
2022-11-04T05:18:53.323Z,7.84
2022-11-04T05:19:56.388Z,7.87
2022-11-04T05:21:01.521Z,7.88
2022-11-04T05:22:04.627Z,7.90
2022-11-04T05:23:09.752Z,7.92
2022-11-04T05:24:12.898Z,7.92
2022-11-04T05:25:16.011Z,7.95
2022-11-04T05:26:19.557Z,7.96
2022-11-04T05:27:23.690Z,8.01
2022-11-04T05:28:26.602Z,8.01
2022-11-04T05:29:29.882Z,8.03
2022-11-04T05:30:33.454Z,8.04
2022-11-04T05:31:36.434Z,8.04
2022-11-04T05:32:39.453Z,8.06
2022-11-04T05:33:42.630Z,8.07
2022-11-04T05:34:47.005Z,8.07
2022-11-04T05:35:49.975Z,8.08
2022-11-04T05:36:53.388Z,8.08
2022-11-04T05:37:56.645Z,8.11
2022-11-04T05:38:59.560Z,8.11
2022-11-04T05:40:02.454Z,8.12
2022-11-04T05:41:07.399Z,8.13
2022-11-04T05:42:10.668Z,8.14
2022-11-04T05:43:13.767Z,8.16
2022-11-04T05:44:16.970Z,8.17
2022-11-04T05:45:20.559Z,8.18
2022-11-04T05:46:24.000Z,8.18
2022-11-04T05:47:27.080Z,8.20
2022-11-04T05:48:30.180Z,8.22
2022-11-04T05:49:33.166Z,8.22
2022-11-04T05:50:36.436Z,8.23
2022-11-04T05:51:39.399Z,8.25
2022-11-04T05:52:43.180Z,8.27
2022-11-04T05:53:47.045Z,8.29
2022-11-04T05:54:50.053Z,8.30
2022-11-04T05:55:53.094Z,8.30
2022-11-04T05:56:56.093Z,8.32
2022-11-04T05:57:59.161Z,8.34
2022-11-04T05:59:02.161Z,8.34
2022-11-04T06:00:06.459Z,8.36
2022-11-04T06:01:16.428Z,8.36
2022-11-04T06:02:19.658Z,8.38
2022-11-04T06:03:23.514Z,8.40
2022-11-04T06:04:26.740Z,8.38
2022-11-04T06:05:30.171Z,8.41
2022-11-04T06:06:35.706Z,8.41
2022-11-04T06:07:38.832Z,8.40
2022-11-04T06:08:45.132Z,8.42
2022-11-04T06:09:46.931Z,8.42
2022-11-04T06:10:50.172Z,8.43
2022-11-04T06:11:53.239Z,8.43
2022-11-04T06:12:57.247Z,8.44
2022-11-04T06:14:00.365Z,8.46
2022-11-04T06:15:04.381Z,8.47
2022-11-04T06:16:07.984Z,8.47
2022-11-04T06:17:18.685Z,8.48
2022-11-04T06:18:21.885Z,8.49
2022-11-04T06:19:24.994Z,8.49
2022-11-04T06:20:28.007Z,8.49
2022-11-04T06:21:32.849Z,8.50
2022-11-04T06:22:35.981Z,8.50
2022-11-04T06:23:39.568Z,8.49
2022-11-04T06:24:43.353Z,8.50
2022-11-04T06:25:46.399Z,8.49
2022-11-04T06:26:49.489Z,8.49
2022-11-04T06:27:52.438Z,8.49
2022-11-04T06:28:56.630Z,8.50
2022-11-04T06:29:59.715Z,8.51
2022-11-04T06:31:04.403Z,8.51
2022-11-04T06:32:13.048Z,8.51
2022-11-04T06:33:16.142Z,8.53
2022-11-04T06:34:19.192Z,8.52
2022-11-04T06:35:22.385Z,8.51
2022-11-04T06:36:25.418Z,8.51
2022-11-04T06:37:28.564Z,8.51
2022-11-04T06:38:32.892Z,8.50
2022-11-04T06:39:36.340Z,8.50
2022-11-04T06:40:39.533Z,8.51
2022-11-04T06:41:43.109Z,8.51
2022-11-04T06:42:46.556Z,8.51
2022-11-04T06:43:49.534Z,8.51
2022-11-04T06:44:52.766Z,8.51
2022-11-04T06:45:56.968Z,8.51
2022-11-04T06:47:00.240Z,8.52
2022-11-04T06:48:03.349Z,8.54
2022-11-04T06:49:09.313Z,8.54
2022-11-04T06:50:12.922Z,8.55
2022-11-04T06:51:16.249Z,8.57
2022-11-04T06:52:19.830Z,8.57
2022-11-04T06:53:22.789Z,8.59
2022-11-04T06:54:25.677Z,8.60
2022-11-04T06:55:28.817Z,8.60
2022-11-04T06:56:31.771Z,8.63
2022-11-04T06:57:34.804Z,8.63
2022-11-04T06:58:37.864Z,8.64
2022-11-04T06:59:40.840Z,8.65
2022-11-04T07:00:45.158Z,8.66
2022-11-04T07:01:51.533Z,8.65
2022-11-04T07:02:55.895Z,8.66
2022-11-04T07:04:00.220Z,8.65
2022-11-04T07:05:04.387Z,8.67
2022-11-04T07:06:09.057Z,8.68
2022-11-04T07:07:12.248Z,8.69
2022-11-04T07:08:15.745Z,8.71
2022-11-04T07:09:19.142Z,8.74
2022-11-04T07:10:22.141Z,8.76
2022-11-04T07:11:26.110Z,8.77
2022-11-04T07:12:29.466Z,8.78
2022-11-04T07:13:32.508Z,8.81
2022-11-04T07:14:35.485Z,8.82
2022-11-04T07:15:39.661Z,8.82
2022-11-04T07:16:42.790Z,8.82
2022-11-04T07:17:46.423Z,8.82
2022-11-04T07:18:51.314Z,8.82
2022-11-04T07:19:54.502Z,8.80
2022-11-04T07:20:58.436Z,8.81
2022-11-04T07:22:01.528Z,8.82
2022-11-04T07:23:05.028Z,8.82
2022-11-04T07:24:07.957Z,8.84
2022-11-04T07:25:11.029Z,8.85
2022-11-04T07:26:14.319Z,8.85
2022-11-04T07:27:17.217Z,8.86
2022-11-04T07:28:20.894Z,8.88
2022-11-04T07:29:25.142Z,8.88
2022-11-04T07:30:28.139Z,8.90
2022-11-04T07:31:31.131Z,8.92
2022-11-04T07:32:34.339Z,8.94
2022-11-04T07:33:37.218Z,8.96
2022-11-04T07:34:41.294Z,8.97
2022-11-04T07:35:45.184Z,8.99
2022-11-04T07:36:48.317Z,9.00
2022-11-04T07:37:51.499Z,9.02
2022-11-04T07:38:54.665Z,9.04
2022-11-04T07:39:57.698Z,9.04
2022-11-04T07:41:02.019Z,9.05
2022-11-04T07:42:07.968Z,9.06
2022-11-04T07:43:11.213Z,9.08
2022-11-04T07:44:14.482Z,9.09
2022-11-04T07:45:17.510Z,9.09
2022-11-04T07:46:21.498Z,9.11
2022-11-04T07:47:24.668Z,9.13
2022-11-04T07:48:27.649Z,9.15
2022-11-04T07:49:30.911Z,9.18
2022-11-04T07:50:34.404Z,9.19
2022-11-04T07:51:37.416Z,9.20
2022-11-04T07:52:40.557Z,9.23
2022-11-04T07:53:43.862Z,9.25
2022-11-04T07:54:46.885Z,9.29
2022-11-04T07:55:50.592Z,9.32
2022-11-04T07:56:53.605Z,9.33
2022-11-04T07:57:56.750Z,9.37
2022-11-04T07:58:59.776Z,9.39
2022-11-04T08:00:06.123Z,9.41
2022-11-04T08:01:16.891Z,9.45
2022-11-04T08:02:25.801Z,9.47
2022-11-04T08:03:25.013Z,9.50
2022-11-04T08:04:28.294Z,9.52
2022-11-04T08:05:31.359Z,9.54
2022-11-04T08:06:34.513Z,9.57
2022-11-04T08:07:37.594Z,9.58
2022-11-04T08:08:42.653Z,9.60
2022-11-04T08:09:45.744Z,9.62
2022-11-04T08:10:53.652Z,9.63
2022-11-04T08:11:56.693Z,9.65
2022-11-04T08:12:59.760Z,9.63
2022-11-04T08:14:04.066Z,9.63
2022-11-04T08:15:07.639Z,9.63
2022-11-04T08:16:14.233Z,9.62
2022-11-04T08:17:17.540Z,9.62
2022-11-04T08:18:20.684Z,9.63
2022-11-04T08:19:23.743Z,9.65
2022-11-04T08:20:27.248Z,9.65
2022-11-04T08:21:32.078Z,9.67
2022-11-04T08:22:35.233Z,9.68
2022-11-04T08:23:38.439Z,9.69
2022-11-04T08:24:41.528Z,9.71
2022-11-04T08:25:45.857Z,9.70
2022-11-04T08:26:49.074Z,9.71
2022-11-04T08:27:54.534Z,9.70
2022-11-04T08:28:57.029Z,9.70
2022-11-04T08:30:00.149Z,9.69
2022-11-04T08:31:06.736Z,9.68
2022-11-04T08:32:09.766Z,9.67
2022-11-04T08:33:12.986Z,9.67
2022-11-04T08:34:17.853Z,9.67
2022-11-04T08:35:20.856Z,9.68
2022-11-04T08:36:27.417Z,9.68
2022-11-04T08:37:30.457Z,9.69
2022-11-04T08:38:34.129Z,9.71
2022-11-04T08:39:37.116Z,9.72
2022-11-04T08:40:40.149Z,9.73
2022-11-04T08:41:44.919Z,9.74
2022-11-04T08:42:47.781Z,9.75
2022-11-04T08:43:50.937Z,9.77
2022-11-04T08:44:54.039Z,9.81
2022-11-04T08:45:57.235Z,9.81
2022-11-04T08:47:00.852Z,9.84
2022-11-04T08:48:05.670Z,9.85
2022-11-04T08:49:11.274Z,9.86
2022-11-04T08:50:13.892Z,9.87
2022-11-04T08:51:20.001Z,9.88
2022-11-04T08:52:24.238Z,9.90
2022-11-04T08:53:27.412Z,9.92
2022-11-04T08:54:30.378Z,9.94
2022-11-04T08:55:34.044Z,9.95
2022-11-04T08:56:39.141Z,9.97
2022-11-04T08:57:42.183Z,9.99
2022-11-04T08:58:45.474Z,10.00
2022-11-04T08:59:48.575Z,10.01
2022-11-04T09:00:51.987Z,10.01
2022-11-04T09:01:55.218Z,10.03
2022-11-04T09:02:58.387Z,10.06
2022-11-04T09:04:01.212Z,10.08
2022-11-04T09:05:04.900Z,10.09
2022-11-04T09:06:11.062Z,10.09
2022-11-04T09:07:14.194Z,10.09
2022-11-04T09:08:17.699Z,10.09
2022-11-04T09:09:21.655Z,10.08
2022-11-04T09:10:24.699Z,10.10
2022-11-04T09:11:27.751Z,10.11
2022-11-04T09:12:30.715Z,10.13
2022-11-04T09:13:39.263Z,10.15
2022-11-04T09:14:38.877Z,10.17
2022-11-04T09:15:42.743Z,10.18
2022-11-04T09:16:45.658Z,10.18
2022-11-04T09:17:48.601Z,10.20
2022-11-04T09:18:51.765Z,10.22
2022-11-04T09:19:55.055Z,10.23
2022-11-04T09:21:02.695Z,10.26
2022-11-04T09:22:05.693Z,10.28
2022-11-04T09:23:09.867Z,10.31
2022-11-04T09:24:13.473Z,10.33
2022-11-04T09:25:16.467Z,10.35
2022-11-04T09:26:21.089Z,10.37
2022-11-04T09:27:23.949Z,10.40
2022-11-04T09:28:26.959Z,10.42
2022-11-04T09:29:32.000Z,10.44
2022-11-04T09:30:36.011Z,10.47
2022-11-04T09:31:39.270Z,10.48
2022-11-04T09:32:42.226Z,10.50
2022-11-04T09:33:45.686Z,10.51
2022-11-04T09:34:48.627Z,10.51
2022-11-04T09:35:57.996Z,10.52
2022-11-04T09:37:01.273Z,10.53
2022-11-04T09:38:04.219Z,10.52
2022-11-04T09:39:07.190Z,10.51
2022-11-04T09:40:22.848Z,10.49
2022-11-04T09:41:52.465Z,10.49
2022-11-04T09:43:08.132Z,10.50
2022-11-04T09:44:24.225Z,10.50
2022-11-04T09:45:29.339Z,10.50
2022-11-04T09:46:34.639Z,10.49
2022-11-04T09:47:40.076Z,10.51
2022-11-04T09:48:49.256Z,10.51
2022-11-04T09:49:57.023Z,10.52
2022-11-04T09:51:03.644Z,10.53
2022-11-04T09:52:10.088Z,10.53
2022-11-04T09:53:19.451Z,10.52
2022-11-04T09:54:28.961Z,10.53
2022-11-04T09:55:41.639Z,10.53
2022-11-04T09:56:48.447Z,10.53
2022-11-04T09:57:55.114Z,10.53
2022-11-04T09:58:58.167Z,10.53
2022-11-04T10:00:01.359Z,10.52
2022-11-04T10:01:35.267Z,10.52
2022-11-04T10:02:53.641Z,10.51
2022-11-04T10:04:14.972Z,10.50
2022-11-04T10:05:39.399Z,10.49
2022-11-04T10:06:51.479Z,10.47
2022-11-04T10:08:26.558Z,10.44
2022-11-04T10:09:36.151Z,10.42
2022-11-04T10:10:48.843Z,10.40
2022-11-04T10:13:40.596Z,10.48
2022-11-04T10:15:07.944Z,10.35
2022-11-04T13:32:39.556Z,8.07
2022-11-04T13:34:07.208Z,8.04
2022-11-04T13:35:30.616Z,8.10
2022-11-04T13:36:43.064Z,8.14
2022-11-04T13:38:09.613Z,8.20
2022-11-04T13:40:48.694Z,8.41
2022-11-04T13:42:17.721Z,8.32
2022-11-04T13:43:39.293Z,8.35
2022-11-04T13:44:50.881Z,8.40
2022-11-04T13:45:56.264Z,8.43
2022-11-04T13:47:03.035Z,8.46
2022-11-04T13:48:09.928Z,8.48
2022-11-04T13:49:16.620Z,8.51
2022-11-04T13:50:38.211Z,8.54
2022-11-04T13:51:49.615Z,8.57
2022-11-04T13:52:53.118Z,8.61
2022-11-04T13:53:57.884Z,8.64
2022-11-04T13:55:08.090Z,8.67
2022-11-04T13:56:34.949Z,8.69
2022-11-04T13:57:35.005Z,8.71
2022-11-04T13:58:41.843Z,8.74
2022-11-04T14:00:04.079Z,8.76
2022-11-04T14:01:25.847Z,8.78
2022-11-04T14:02:38.861Z,8.79
2022-11-04T14:03:53.981Z,8.81
2022-11-04T14:04:57.343Z,8.82
2022-11-04T14:06:03.908Z,8.83
2022-11-04T14:07:10.085Z,8.85
2022-11-04T14:08:15.498Z,8.86
2022-11-04T14:09:30.911Z,8.89
2022-11-04T14:10:46.481Z,8.89
2022-11-04T14:12:19.050Z,8.90
2022-11-04T14:13:36.096Z,8.90
2022-11-04T14:14:44.517Z,8.91
2022-11-04T14:15:59.953Z,8.92
2022-11-04T14:17:04.873Z,8.92
2022-11-04T14:18:13.102Z,8.93
2022-11-04T14:19:38.194Z,8.92
2022-11-04T14:20:46.380Z,8.92
2022-11-04T14:22:09.534Z,8.93
2022-11-04T14:23:16.192Z,8.93
2022-11-04T14:24:19.476Z,8.94
2022-11-04T14:25:28.815Z,8.94
2022-11-04T14:26:43.901Z,8.95
2022-11-04T14:27:49.329Z,8.96
2022-11-04T14:29:01.791Z,8.96
2022-11-04T14:30:07.008Z,8.96
2022-11-04T14:31:17.437Z,8.98
2022-11-04T14:32:24.519Z,8.99
2022-11-04T14:33:54.622Z,8.99
2022-11-04T14:35:01.130Z,9.00
2022-11-04T14:36:22.683Z,8.99
2022-11-04T14:38:43.253Z,9.08
2022-11-04T14:39:49.673Z,8.98
2022-11-04T14:41:14.700Z,8.98
2022-11-04T14:42:21.108Z,8.96
2022-11-04T14:43:30.873Z,8.98
2022-11-04T14:44:45.639Z,8.98
2022-11-04T14:45:47.977Z,8.98
2022-11-04T14:46:54.104Z,8.99
2022-11-04T14:48:15.778Z,8.98
2022-11-04T14:49:28.347Z,8.97
2022-11-04T14:50:31.453Z,8.99
2022-11-04T14:51:40.442Z,8.97
2022-11-04T14:52:49.859Z,8.96
2022-11-04T14:53:56.563Z,8.96
2022-11-04T14:55:11.985Z,8.95
2022-11-04T14:56:23.518Z,8.95
2022-11-04T14:57:24.338Z,8.95
2022-11-04T14:58:30.123Z,8.95
2022-11-04T14:59:33.087Z,8.96
2022-11-04T15:00:51.002Z,8.95
2022-11-04T15:01:55.545Z,8.94
2022-11-04T15:03:02.181Z,8.94
2022-11-04T15:04:17.844Z,8.94
2022-11-04T15:05:24.304Z,8.94
2022-11-04T15:06:40.673Z,8.94
2022-11-04T15:07:37.439Z,8.94
2022-11-04T15:08:46.383Z,8.94
2022-11-04T15:09:50.078Z,8.94
2022-11-04T15:11:00.130Z,8.93
2022-11-04T15:12:33.628Z,8.93
2022-11-04T15:13:46.007Z,8.92
2022-11-04T15:14:49.010Z,8.92
2022-11-04T15:15:55.315Z,8.90
2022-11-04T15:16:59.575Z,8.90
2022-11-04T15:18:11.561Z,8.90
2022-11-04T15:19:26.909Z,8.90
2022-11-04T15:20:31.048Z,8.88
2022-11-04T15:21:40.203Z,8.88
2022-11-04T15:22:43.710Z,8.87
2022-11-04T15:23:49.717Z,8.86
2022-11-04T15:24:52.976Z,8.85
2022-11-04T15:25:56.867Z,8.85
2022-11-04T15:27:03.202Z,8.84
2022-11-04T15:28:09.745Z,8.84
2022-11-04T15:29:14.435Z,8.82
2022-11-04T15:30:30.390Z,8.82
2022-11-04T15:31:34.954Z,8.82
2022-11-04T15:32:37.961Z,8.81
2022-11-04T15:33:44.193Z,8.81
2022-11-04T15:34:47.723Z,8.79
2022-11-04T15:35:51.738Z,8.78
2022-11-04T15:36:58.047Z,8.78
2022-11-04T15:38:03.345Z,8.76
2022-11-04T15:39:30.866Z,8.76
2022-11-04T15:40:34.746Z,8.74
2022-11-04T15:41:57.995Z,8.73
2022-11-04T15:43:03.484Z,8.72
2022-11-04T15:44:21.690Z,8.67
2022-11-04T15:45:51.367Z,8.65
2022-11-04T15:47:00.468Z,8.64
2022-11-04T15:48:23.295Z,8.59
2022-11-04T15:49:29.086Z,8.57
2022-11-04T15:50:32.183Z,8.54
2022-11-04T15:51:38.790Z,8.52
2022-11-04T15:52:50.928Z,8.52
2022-11-04T15:53:59.984Z,8.52
2022-11-04T15:55:04.843Z,8.51
2022-11-04T15:56:08.539Z,8.50
2022-11-04T15:57:20.684Z,8.51
2022-11-04T15:58:25.315Z,8.50
2022-11-04T15:59:34.577Z,8.50
2022-11-04T16:00:37.534Z,8.49
2022-11-04T16:01:48.848Z,8.49
2022-11-04T16:03:00.681Z,8.48
2022-11-04T16:04:05.833Z,8.48
2022-11-04T16:05:18.079Z,8.47
2022-11-04T16:07:46.931Z,8.57
2022-11-04T16:09:04.877Z,8.47
2022-11-04T16:10:24.359Z,8.46
2022-11-04T16:11:27.398Z,8.46
2022-11-04T16:12:35.922Z,8.43
2022-11-04T16:13:39.605Z,8.43
2022-11-04T16:14:50.546Z,8.42
2022-11-04T16:16:05.033Z,8.43
2022-11-04T16:17:10.594Z,8.43
2022-11-04T16:18:39.587Z,8.43
2022-11-04T16:19:45.525Z,8.43
2022-11-04T16:20:52.421Z,8.43
2022-11-04T16:22:04.576Z,8.42
2022-11-04T16:23:11.290Z,8.43
2022-11-04T16:24:18.004Z,8.44
2022-11-04T16:25:23.336Z,8.44
2022-11-04T16:26:34.399Z,8.45
2022-11-04T16:27:37.764Z,8.45
2022-11-04T16:28:41.794Z,8.45
2022-11-04T16:29:54.351Z,8.46
2022-11-04T16:31:09.951Z,8.47
2022-11-04T16:33:38.655Z,8.58
2022-11-04T16:34:42.271Z,8.46
2022-11-04T16:35:45.118Z,8.46
2022-11-04T16:36:48.008Z,8.45
2022-11-04T16:37:51.977Z,8.45
2022-11-04T16:38:56.820Z,8.46
2022-11-04T16:39:59.837Z,8.46
2022-11-04T16:41:02.719Z,8.46
2022-11-04T16:42:06.470Z,8.45
2022-11-04T16:43:10.263Z,8.46
2022-11-04T16:44:20.124Z,8.46
2022-11-04T16:45:34.671Z,8.47
2022-11-04T16:46:40.195Z,8.47
2022-11-04T16:47:43.173Z,8.47
2022-11-04T16:48:46.009Z,8.47
2022-11-04T16:49:48.861Z,8.47
2022-11-04T16:50:51.715Z,8.48
2022-11-04T16:51:57.872Z,8.48
2022-11-04T16:53:03.152Z,8.47
2022-11-04T16:54:06.013Z,8.47
2022-11-04T16:55:09.609Z,8.47
2022-11-04T16:56:12.789Z,8.48
2022-11-04T16:57:15.979Z,8.49
2022-11-04T16:58:18.994Z,8.49
2022-11-04T16:59:23.045Z,8.51
2022-11-04T17:00:26.882Z,8.49
2022-11-04T17:01:30.003Z,8.51
2022-11-04T17:02:40.348Z,8.51
2022-11-04T17:03:43.444Z,8.50
2022-11-04T17:04:46.367Z,8.52
2022-11-04T17:05:51.217Z,8.52
2022-11-04T17:06:54.505Z,8.53
2022-11-04T17:08:04.160Z,8.52
2022-11-04T17:09:02.713Z,8.53
2022-11-04T17:10:09.487Z,8.53
2022-11-04T17:11:12.539Z,8.53
2022-11-04T17:12:15.416Z,8.54
2022-11-04T17:13:18.246Z,8.55
2022-11-04T17:14:21.563Z,8.54
2022-11-04T17:15:25.385Z,8.53
2022-11-04T17:16:29.635Z,8.52
2022-11-04T17:17:32.507Z,8.54
2022-11-04T17:18:35.437Z,8.53
2022-11-04T17:19:39.221Z,8.53
2022-11-04T17:20:50.965Z,8.52
2022-11-04T17:21:56.189Z,8.51
2022-11-04T17:22:59.873Z,8.52
2022-11-04T17:24:04.178Z,8.51
2022-11-04T17:25:16.590Z,8.51
2022-11-04T17:26:19.934Z,8.52
2022-11-04T17:27:22.791Z,8.51
2022-11-04T17:28:27.378Z,8.52
2022-11-04T17:29:31.430Z,8.52
2022-11-04T17:30:34.770Z,8.52
2022-11-04T17:31:37.830Z,8.52
2022-11-04T17:32:41.993Z,8.51
2022-11-04T17:33:45.015Z,8.52
2022-11-04T17:34:47.982Z,8.52
2022-11-04T17:35:51.304Z,8.51
2022-11-04T17:36:54.782Z,8.53
2022-11-04T17:37:58.720Z,8.51
2022-11-04T17:39:01.734Z,8.52
2022-11-04T17:40:06.985Z,8.52
2022-11-04T17:41:28.179Z,8.51
2022-11-04T17:42:49.499Z,8.51
2022-11-04T17:44:01.643Z,8.51
2022-11-04T17:45:05.190Z,8.51
2022-11-04T17:46:27.829Z,8.51
2022-11-04T17:47:35.942Z,8.51
2022-11-04T17:48:38.822Z,8.50
2022-11-04T17:49:41.682Z,8.49
2022-11-04T17:50:45.940Z,8.49
2022-11-04T17:51:53.079Z,8.49
2022-11-04T17:52:56.154Z,8.47
2022-11-04T17:53:59.193Z,8.48
2022-11-04T17:55:02.634Z,8.47
2022-11-04T17:56:17.739Z,8.47
2022-11-04T17:57:20.665Z,8.46
2022-11-04T17:58:23.632Z,8.46
2022-11-04T17:59:31.225Z,8.45
2022-11-04T18:00:32.648Z,8.46
2022-11-04T18:01:36.632Z,8.46
2022-11-04T18:02:40.080Z,8.47
2022-11-04T18:03:43.331Z,8.46
2022-11-04T18:04:46.265Z,8.45
2022-11-04T18:05:52.834Z,8.45
2022-11-04T18:07:01.405Z,8.45
2022-11-04T18:08:01.373Z,8.45
2022-11-04T18:09:04.971Z,8.45
2022-11-04T18:10:08.726Z,8.45
2022-11-04T18:11:13.780Z,8.45
2022-11-04T18:12:35.301Z,8.45
2022-11-04T18:13:38.179Z,8.45
2022-11-04T18:14:41.100Z,8.44
2022-11-04T18:15:44.135Z,8.43
2022-11-04T18:16:49.665Z,8.43
2022-11-04T18:17:52.637Z,8.40
2022-11-04T18:18:58.366Z,8.40
2022-11-04T18:20:01.571Z,8.38
2022-11-04T18:21:06.472Z,8.38
2022-11-04T18:22:09.535Z,8.39
2022-11-04T18:23:12.667Z,8.38
2022-11-04T18:24:16.538Z,8.38